createdAt,value
2023-03-10T00:00:49.521Z,990.06
2023-03-10T00:01:49.524Z,990.02
2023-03-10T00:02:49.646Z,989.97
2023-03-10T00:03:49.492Z,989.97
2023-03-10T00:04:49.568Z,989.97
2023-03-10T00:05:49.541Z,989.88
2023-03-10T00:06:49.464Z,989.87
2023-03-10T00:07:49.437Z,989.85
2023-03-10T00:08:49.429Z,989.87
2023-03-10T00:09:49.415Z,989.96
2023-03-10T00:10:49.406Z,989.91
2023-03-10T00:11:49.393Z,989.87
2023-03-10T00:12:49.395Z,989.89
2023-03-10T00:13:49.370Z,989.87
2023-03-10T00:14:49.364Z,989.78
2023-03-10T00:15:49.386Z,989.73
2023-03-10T00:16:49.345Z,989.75
2023-03-10T00:17:49.339Z,989.72
2023-03-10T00:18:49.320Z,989.71
2023-03-10T00:19:49.305Z,989.65
2023-03-10T00:20:49.323Z,989.64
2023-03-10T00:21:49.292Z,989.59
2023-03-10T00:22:49.279Z,989.65
2023-03-10T00:23:49.280Z,989.70
2023-03-10T00:24:49.249Z,989.72
2023-03-10T00:25:49.246Z,989.63
2023-03-10T00:26:49.272Z,989.64
2023-03-10T00:27:49.218Z,989.61
2023-03-10T00:28:49.233Z,989.61
2023-03-10T00:29:49.197Z,989.58
2023-03-10T00:30:49.229Z,989.56
2023-03-10T00:31:49.174Z,989.56
2023-03-10T00:32:49.264Z,989.54
2023-03-10T00:33:49.158Z,989.56
2023-03-10T00:34:49.152Z,989.47
2023-03-10T00:35:49.173Z,989.51
2023-03-10T00:36:49.288Z,989.44
2023-03-10T00:37:49.111Z,989.42
2023-03-10T00:38:49.101Z,989.40
2023-03-10T00:39:49.104Z,989.40
2023-03-10T00:40:49.087Z,989.29
2023-03-10T00:41:49.084Z,989.34
2023-03-10T00:42:49.066Z,989.25
2023-03-10T00:43:49.057Z,989.25
2023-03-10T00:44:49.039Z,989.22
2023-03-10T00:45:49.059Z,989.18
2023-03-10T00:46:49.081Z,989.18
2023-03-10T00:47:49.018Z,989.07
2023-03-10T00:48:49.003Z,989.12
2023-03-10T00:49:48.991Z,989.09
2023-03-10T00:50:48.983Z,989.08
2023-03-10T00:51:48.987Z,989.08
2023-03-10T00:52:48.980Z,989.01
2023-03-10T00:53:48.947Z,989.05
2023-03-10T00:54:48.934Z,989.05
2023-03-10T00:55:48.924Z,989.07
2023-03-10T00:56:48.908Z,989.04
2023-03-10T00:57:48.903Z,989.06
2023-03-10T00:58:48.883Z,989.03
2023-03-10T00:59:50.693Z,989.06
2023-03-10T01:00:48.863Z,989.03
2023-03-10T01:01:48.908Z,988.99
2023-03-10T01:02:48.846Z,988.98
2023-03-10T01:03:48.828Z,988.93
2023-03-10T01:04:48.923Z,988.79
2023-03-10T01:05:48.816Z,988.83
2023-03-10T01:06:48.806Z,988.73
2023-03-10T01:07:48.792Z,988.65
2023-03-10T01:08:48.802Z,988.63
2023-03-10T01:09:48.760Z,988.63
2023-03-10T01:10:48.758Z,988.63
2023-03-10T01:11:48.746Z,988.67
2023-03-10T01:12:48.742Z,988.55
2023-03-10T01:13:48.723Z,988.61
2023-03-10T01:14:48.711Z,988.56
2023-03-10T01:15:48.842Z,988.48
2023-03-10T01:16:48.688Z,988.50
2023-03-10T01:17:48.694Z,988.46
2023-03-10T01:18:48.670Z,988.43
2023-03-10T01:19:48.651Z,988.40
2023-03-10T01:20:48.655Z,988.39
2023-03-10T01:21:48.636Z,988.35
2023-03-10T01:22:48.620Z,988.29
2023-03-10T01:23:48.713Z,988.29
2023-03-10T01:24:48.628Z,988.30
2023-03-10T01:25:48.592Z,988.20
2023-03-10T01:26:48.575Z,988.13
2023-03-10T01:27:48.575Z,988.03
2023-03-10T01:28:48.580Z,988.10
2023-03-10T01:29:48.549Z,988.06
2023-03-10T01:30:48.533Z,988.04
2023-03-10T01:31:48.577Z,988.01
2023-03-10T01:32:48.636Z,987.97
2023-03-10T01:33:48.535Z,988.00
2023-03-10T01:34:48.486Z,987.98
2023-03-10T01:35:48.502Z,987.96
2023-03-10T01:36:48.470Z,988.04
2023-03-10T01:37:48.458Z,988.01
2023-03-10T01:38:48.454Z,987.93
2023-03-10T01:39:48.444Z,987.84
2023-03-10T01:40:48.439Z,987.84
2023-03-10T01:41:48.416Z,987.82
2023-03-10T01:42:48.401Z,987.83
2023-03-10T01:43:48.393Z,987.83
2023-03-10T01:44:48.379Z,987.84
2023-03-10T01:45:48.363Z,987.86
2023-03-10T01:46:48.439Z,987.87
2023-03-10T01:47:48.346Z,987.74
2023-03-10T01:48:48.336Z,987.75
2023-03-10T01:49:48.322Z,987.71
2023-03-10T01:50:48.309Z,987.68
2023-03-10T01:51:48.326Z,987.69
2023-03-10T01:52:48.284Z,987.63
2023-03-10T01:53:48.280Z,987.52
2023-03-10T01:54:48.271Z,987.57
2023-03-10T01:55:48.258Z,987.52
2023-03-10T01:56:48.272Z,987.54
2023-03-10T01:57:48.240Z,987.50
2023-03-10T01:58:48.222Z,987.49
2023-03-10T01:59:48.204Z,987.47
2023-03-10T02:00:48.228Z,987.40
2023-03-10T02:01:48.293Z,987.39
2023-03-10T02:02:48.173Z,987.31
2023-03-10T02:03:48.167Z,987.34
2023-03-10T02:04:48.157Z,987.24
2023-03-10T02:05:48.140Z,987.33
2023-03-10T02:06:48.128Z,987.29
2023-03-10T02:07:48.118Z,987.29
2023-03-10T02:08:48.119Z,987.26
2023-03-10T02:09:48.109Z,987.20
2023-03-10T02:10:48.103Z,987.12
2023-03-10T02:11:48.095Z,987.13
2023-03-10T02:12:48.085Z,987.14
2023-03-10T02:13:48.053Z,987.09
2023-03-10T02:14:48.046Z,987.11
2023-03-10T02:15:48.041Z,987.07
2023-03-10T02:16:48.062Z,987.03
2023-03-10T02:17:48.065Z,986.98
2023-03-10T02:18:48.010Z,986.98
2023-03-10T02:19:47.995Z,986.97
2023-03-10T02:20:47.983Z,986.87
2023-03-10T02:21:47.969Z,986.84
2023-03-10T02:22:48.056Z,986.87
2023-03-10T02:24:00.407Z,986.87
2023-03-10T02:24:47.946Z,986.85
2023-03-10T02:25:47.928Z,986.81
2023-03-10T02:26:47.924Z,986.76
2023-03-10T02:27:47.931Z,986.74
2023-03-10T02:28:47.969Z,986.67
2023-03-10T02:29:58.534Z,986.68
2023-03-10T02:30:47.867Z,986.64
2023-03-10T02:31:47.941Z,986.60
2023-03-10T02:32:47.936Z,986.59
2023-03-10T02:33:47.840Z,986.52
2023-03-10T02:34:47.834Z,986.48
2023-03-10T02:35:47.837Z,986.46
2023-03-10T02:36:47.801Z,986.46
2023-03-10T02:37:47.799Z,986.46
2023-03-10T02:38:47.802Z,986.33
2023-03-10T02:39:47.770Z,986.36
2023-03-10T02:40:47.772Z,986.35
2023-03-10T02:41:47.746Z,986.34
2023-03-10T02:42:47.742Z,986.33
2023-03-10T02:43:47.732Z,986.35
2023-03-10T02:44:47.796Z,986.30
2023-03-10T02:45:47.775Z,986.35
2023-03-10T02:46:47.697Z,986.29
2023-03-10T02:47:47.686Z,986.18
2023-03-10T02:48:47.681Z,986.23
2023-03-10T02:49:47.656Z,986.24
2023-03-10T02:50:47.659Z,986.16
2023-03-10T02:51:47.650Z,986.09
2023-03-10T02:52:47.642Z,986.08
2023-03-10T02:53:47.622Z,986.04
2023-03-10T02:54:47.701Z,986.02
2023-03-10T02:55:47.596Z,986.05
2023-03-10T02:56:47.597Z,986.03
2023-03-10T02:57:47.567Z,986.04
2023-03-10T02:58:47.564Z,985.97
2023-03-10T02:59:47.568Z,985.93
2023-03-10T03:00:47.609Z,985.93
2023-03-10T03:01:47.537Z,986.00
2023-03-10T03:02:47.512Z,985.98
2023-03-10T03:03:47.592Z,985.96
2023-03-10T03:04:47.522Z,985.84
2023-03-10T03:05:47.492Z,985.87
2023-03-10T03:06:47.479Z,985.84
2023-03-10T03:07:47.458Z,985.83
2023-03-10T03:08:47.447Z,985.79
2023-03-10T03:09:47.440Z,985.82
2023-03-10T03:10:47.438Z,985.76
2023-03-10T03:11:47.418Z,985.83
2023-03-10T03:12:47.402Z,985.75
2023-03-10T03:13:47.401Z,985.73
2023-03-10T03:14:47.385Z,985.69
2023-03-10T03:15:47.377Z,985.74
2023-03-10T03:16:47.576Z,985.70
2023-03-10T03:17:47.349Z,985.74
2023-03-10T03:18:47.342Z,985.68
2023-03-10T03:19:47.338Z,985.70
2023-03-10T03:20:47.324Z,985.76
2023-03-10T03:21:47.310Z,985.69
2023-03-10T03:22:47.290Z,985.61
2023-03-10T03:23:47.295Z,985.63
2023-03-10T03:24:47.270Z,985.66
2023-03-10T03:25:47.257Z,985.63
2023-03-10T03:26:47.256Z,985.56
2023-03-10T03:27:47.244Z,985.64
2023-03-10T03:28:47.226Z,985.63
2023-03-10T03:29:47.231Z,985.63
2023-03-10T03:30:47.209Z,985.60
2023-03-10T03:31:47.241Z,985.56
2023-03-10T03:32:47.279Z,985.52
2023-03-10T03:33:47.175Z,985.49
2023-03-10T03:34:47.157Z,985.51
2023-03-10T03:35:47.274Z,985.37
2023-03-10T03:36:47.139Z,985.40
2023-03-10T03:37:47.131Z,985.35
2023-03-10T03:38:47.118Z,985.28
2023-03-10T03:39:47.178Z,985.27
2023-03-10T03:40:47.092Z,985.24
2023-03-10T03:41:47.084Z,985.17
2023-03-10T03:42:47.087Z,985.20
2023-03-10T03:43:47.065Z,985.21
2023-03-10T03:44:47.046Z,985.17
2023-03-10T03:45:47.092Z,985.14
2023-03-10T03:46:47.029Z,985.18
2023-03-10T03:47:47.031Z,985.15
2023-03-10T03:48:47.027Z,985.13
2023-03-10T03:49:46.990Z,985.12
2023-03-10T03:50:46.986Z,985.05
2023-03-10T03:51:46.967Z,985.04
2023-03-10T03:52:46.964Z,984.98
2023-03-10T03:53:46.955Z,984.99
2023-03-10T03:54:46.947Z,984.94
2023-03-10T03:55:46.939Z,984.97
2023-03-10T03:56:46.929Z,984.88
2023-03-10T03:57:46.911Z,984.87
2023-03-10T03:58:46.901Z,984.78
2023-03-10T03:59:46.889Z,984.78
2023-03-10T04:00:46.876Z,984.77
2023-03-10T04:01:46.865Z,984.81
2023-03-10T04:02:46.957Z,984.77
2023-03-10T04:03:46.855Z,984.74
2023-03-10T04:04:46.857Z,984.70
2023-03-10T04:05:46.820Z,984.65
2023-03-10T04:06:46.820Z,984.68
2023-03-10T04:07:46.818Z,984.66
2023-03-10T04:08:46.800Z,984.59
2023-03-10T04:09:46.776Z,984.56
2023-03-10T04:10:46.763Z,984.53
2023-03-10T04:11:46.747Z,984.56
2023-03-10T04:12:46.754Z,984.52
2023-03-10T04:13:46.743Z,984.49
2023-03-10T04:14:46.732Z,984.51
2023-03-10T04:15:46.797Z,984.51
2023-03-10T04:16:46.705Z,984.43
2023-03-10T04:17:46.681Z,984.50
2023-03-10T04:18:46.677Z,984.42
2023-03-10T04:19:51.416Z,984.47
2023-03-10T04:20:46.680Z,984.49
2023-03-10T04:21:46.653Z,984.42
2023-03-10T04:22:46.629Z,984.43
2023-03-10T04:23:46.623Z,984.45
2023-03-10T04:24:46.616Z,984.40
2023-03-10T04:25:46.601Z,984.38
2023-03-10T04:26:46.590Z,984.47
2023-03-10T04:27:46.573Z,984.47
2023-03-10T04:28:46.574Z,984.45
2023-03-10T04:29:46.560Z,984.43
2023-03-10T04:30:46.562Z,984.36
2023-03-10T04:31:59.019Z,984.33
2023-03-10T04:32:49.056Z,984.35
2023-03-10T04:33:46.507Z,984.37
2023-03-10T04:34:46.508Z,984.41
2023-03-10T04:35:46.559Z,984.45
2023-03-10T04:36:46.503Z,984.45
2023-03-10T04:37:46.473Z,984.40
2023-03-10T04:38:46.462Z,984.36
2023-03-10T04:39:46.449Z,984.36
2023-03-10T04:40:46.439Z,984.35
2023-03-10T04:41:46.420Z,984.39
2023-03-10T04:42:46.423Z,984.35
2023-03-10T04:43:47.987Z,984.19
2023-03-10T04:44:46.391Z,984.20
2023-03-10T04:45:46.493Z,984.18
2023-03-10T04:46:46.371Z,984.19
2023-03-10T04:47:46.367Z,984.37
2023-03-10T04:48:46.362Z,984.42
2023-03-10T04:49:46.334Z,984.22
2023-03-10T04:50:46.322Z,984.20
2023-03-10T04:51:46.318Z,984.12
2023-03-10T04:52:46.330Z,984.09
2023-03-10T04:53:46.322Z,984.19
2023-03-10T04:54:46.278Z,984.21
2023-03-10T04:55:46.269Z,984.18
2023-03-10T04:56:46.263Z,984.17
2023-03-10T04:57:46.254Z,984.17
2023-03-10T04:58:46.238Z,984.09
2023-03-10T04:59:46.234Z,984.14
2023-03-10T05:01:01.830Z,984.08
2023-03-10T05:01:46.291Z,984.07
2023-03-10T05:02:46.189Z,984.04
2023-03-10T05:03:46.184Z,984.06
2023-03-10T05:04:46.293Z,983.99
2023-03-10T05:05:46.158Z,983.95
2023-03-10T05:06:46.150Z,983.93
2023-03-10T05:07:46.148Z,983.94
2023-03-10T05:08:46.155Z,983.96
2023-03-10T05:09:46.123Z,983.91
2023-03-10T05:10:46.103Z,983.89
2023-03-10T05:11:46.088Z,983.87
2023-03-10T05:12:46.080Z,983.83
2023-03-10T05:13:46.065Z,983.75
2023-03-10T05:14:46.065Z,983.77
2023-03-10T05:15:46.108Z,983.85
2023-03-10T05:16:46.035Z,983.76
2023-03-10T05:17:48.234Z,983.74
2023-03-10T05:18:46.058Z,983.71
2023-03-10T05:19:45.998Z,983.71
2023-03-10T05:20:45.991Z,983.78
2023-03-10T05:21:45.982Z,983.71
2023-03-10T05:22:45.968Z,983.68
2023-03-10T05:23:45.970Z,983.63
2023-03-10T05:24:45.987Z,983.65
2023-03-10T05:25:45.942Z,983.59
2023-03-10T05:26:45.925Z,983.64
2023-03-10T05:27:45.908Z,983.65
2023-03-10T05:28:45.905Z,983.56
2023-03-10T05:29:45.902Z,983.53
2023-03-10T05:30:45.888Z,983.51
2023-03-10T05:31:45.936Z,983.48
2023-03-10T05:32:45.910Z,983.50
2023-03-10T05:33:45.840Z,983.49
2023-03-10T05:34:45.842Z,983.48
2023-03-10T05:35:45.870Z,983.50
2023-03-10T05:36:45.818Z,983.51
2023-03-10T05:37:45.811Z,983.46
2023-03-10T05:38:45.795Z,983.57
2023-03-10T05:39:45.785Z,983.54
2023-03-10T05:40:45.806Z,983.48
2023-03-10T05:41:45.769Z,983.52
2023-03-10T05:42:45.774Z,983.46
2023-03-10T05:43:45.761Z,983.34
2023-03-10T05:44:47.729Z,983.43
2023-03-10T05:45:45.715Z,983.39
2023-03-10T05:46:45.808Z,983.38
2023-03-10T05:47:45.695Z,983.35
2023-03-10T05:48:45.695Z,983.37
2023-03-10T05:49:45.668Z,983.35
2023-03-10T05:50:45.658Z,983.34
2023-03-10T05:51:47.653Z,983.30
2023-03-10T05:52:45.674Z,983.33
2023-03-10T05:53:47.642Z,983.26
2023-03-10T05:54:45.618Z,983.28
2023-03-10T05:55:45.607Z,983.22
2023-03-10T05:56:45.630Z,983.23
2023-03-10T05:57:45.587Z,983.25
2023-03-10T05:58:45.566Z,983.24
2023-03-10T05:59:45.559Z,983.21
2023-03-10T06:00:47.550Z,983.24
2023-03-10T06:01:45.543Z,983.21
2023-03-10T06:02:45.609Z,983.23
2023-03-10T06:03:47.658Z,983.29
2023-03-10T06:04:45.507Z,983.20
2023-03-10T06:05:47.497Z,983.16
2023-03-10T06:06:47.488Z,983.15
2023-03-10T06:07:45.467Z,983.22
2023-03-10T06:08:45.463Z,983.22
2023-03-10T06:09:45.468Z,983.17
2023-03-10T06:10:45.436Z,983.14
2023-03-10T06:11:45.439Z,983.16
2023-03-10T06:12:45.445Z,983.12
2023-03-10T06:13:45.431Z,983.17
2023-03-10T06:14:47.389Z,983.19
2023-03-10T06:15:45.380Z,983.22
2023-03-10T06:16:45.463Z,983.22
2023-03-10T06:17:45.377Z,983.19
2023-03-10T06:18:45.345Z,983.18
2023-03-10T06:19:45.344Z,983.18
2023-03-10T06:20:45.327Z,983.17
2023-03-10T06:21:45.317Z,983.18
2023-03-10T06:22:45.305Z,983.16
2023-03-10T06:23:45.303Z,983.13
2023-03-10T06:24:45.300Z,983.15
2023-03-10T06:25:45.273Z,983.21
2023-03-10T06:26:45.256Z,983.22
2023-03-10T06:27:45.252Z,983.21
2023-03-10T06:28:45.268Z,983.21
2023-03-10T06:29:45.227Z,983.24
2023-03-10T06:30:45.216Z,983.20
2023-03-10T06:31:45.217Z,983.13
2023-03-10T06:32:45.275Z,983.15
2023-03-10T06:33:45.216Z,983.19
2023-03-10T06:34:45.172Z,983.18
2023-03-10T06:35:45.179Z,983.13
2023-03-10T06:36:45.154Z,983.18
2023-03-10T06:37:45.149Z,983.14
2023-03-10T06:38:45.152Z,983.15
2023-03-10T06:39:45.115Z,983.15
2023-03-10T06:40:45.119Z,983.09
2023-03-10T06:41:45.110Z,983.07
2023-03-10T06:42:45.090Z,982.99
2023-03-10T06:43:45.080Z,983.00
2023-03-10T06:44:46.758Z,982.98
2023-03-10T06:45:45.189Z,982.98
2023-03-10T06:46:45.039Z,983.03
2023-03-10T06:47:45.030Z,983.03
2023-03-10T06:48:45.023Z,982.98
2023-03-10T06:49:45.005Z,983.04
2023-03-10T06:50:45.003Z,983.04
2023-03-10T06:51:44.993Z,983.00
2023-03-10T06:52:44.972Z,983.00
2023-03-10T06:53:44.984Z,983.02
2023-03-10T06:54:44.952Z,982.99
2023-03-10T06:55:44.951Z,983.01
2023-03-10T06:56:44.945Z,982.97
2023-03-10T06:57:44.918Z,983.00
2023-03-10T06:58:44.911Z,983.02
2023-03-10T06:59:44.908Z,982.98
2023-03-10T07:00:44.979Z,983.00
2023-03-10T07:01:44.887Z,983.04
2023-03-10T07:02:44.882Z,982.94
2023-03-10T07:03:44.852Z,983.03
2023-03-10T07:04:44.902Z,982.99
2023-03-10T07:05:44.827Z,982.96
2023-03-10T07:06:44.820Z,982.99
2023-03-10T07:07:44.810Z,982.89
2023-03-10T07:08:44.801Z,982.94
2023-03-10T07:09:44.782Z,982.95
2023-03-10T07:10:44.776Z,982.95
2023-03-10T07:11:44.770Z,982.89
2023-03-10T07:12:44.754Z,982.86
2023-03-10T07:13:44.747Z,982.92
2023-03-10T07:14:44.736Z,982.88
2023-03-10T07:15:44.716Z,982.91
2023-03-10T07:16:44.959Z,982.85
2023-03-10T07:17:44.690Z,982.84
2023-03-10T07:18:44.694Z,982.80
2023-03-10T07:19:44.678Z,982.90
2023-03-10T07:20:44.658Z,982.84
2023-03-10T07:21:44.657Z,982.85
2023-03-10T07:22:44.640Z,982.81
2023-03-10T07:23:44.635Z,982.89
2023-03-10T07:24:44.624Z,982.84
2023-03-10T07:25:44.599Z,982.85
2023-03-10T07:26:44.588Z,982.87
2023-03-10T07:27:44.576Z,982.87
2023-03-10T07:28:44.575Z,982.89
2023-03-10T07:29:44.555Z,982.91
2023-03-10T07:30:44.609Z,982.88
2023-03-10T07:31:44.543Z,982.88
2023-03-10T07:32:44.744Z,982.97
2023-03-10T07:33:44.568Z,983.00
2023-03-10T07:34:44.560Z,982.99
2023-03-10T07:35:44.555Z,982.95
2023-03-10T07:36:44.482Z,982.94
2023-03-10T07:37:44.468Z,982.93
2023-03-10T07:38:44.469Z,982.91
2023-03-10T07:39:44.443Z,982.85
2023-03-10T07:40:44.441Z,982.86
2023-03-10T07:41:44.419Z,982.91
2023-03-10T07:42:44.428Z,982.95
2023-03-10T07:43:44.403Z,982.96
2023-03-10T07:44:44.392Z,982.96
2023-03-10T07:45:44.394Z,982.86
2023-03-10T07:46:44.363Z,982.89
2023-03-10T07:47:44.360Z,982.87
2023-03-10T07:48:44.376Z,982.79
2023-03-10T07:49:44.330Z,982.78
2023-03-10T07:50:44.337Z,982.81
2023-03-10T07:51:44.321Z,982.75
2023-03-10T07:52:44.306Z,982.80
2023-03-10T07:53:44.288Z,982.92
2023-03-10T07:54:44.381Z,982.92
2023-03-10T07:55:44.271Z,982.91
2023-03-10T07:56:44.256Z,982.97
2023-03-10T07:57:44.290Z,982.89
2023-03-10T07:58:44.242Z,982.87
2023-03-10T07:59:44.218Z,982.76
2023-03-10T08:00:44.634Z,982.80
2023-03-10T08:01:44.193Z,982.64
2023-03-10T08:02:44.189Z,982.65
2023-03-10T08:03:44.272Z,982.73
2023-03-10T08:04:45.137Z,982.80
2023-03-10T08:05:44.156Z,982.89
2023-03-10T08:06:44.149Z,982.96
2023-03-10T08:07:44.132Z,982.90
2023-03-10T08:08:44.118Z,982.87
2023-03-10T08:09:44.115Z,982.86
2023-03-10T08:10:44.117Z,982.85
2023-03-10T08:11:44.089Z,982.84
2023-03-10T08:12:44.120Z,982.79
2023-03-10T08:13:44.231Z,982.73
2023-03-10T08:14:44.083Z,982.74
2023-03-10T08:15:44.590Z,982.72
2023-03-10T08:16:44.024Z,982.72
2023-03-10T08:17:44.019Z,982.71
2023-03-10T08:18:44.033Z,982.66
2023-03-10T08:19:43.998Z,982.69
2023-03-10T08:20:44.025Z,982.72
2023-03-10T08:21:43.966Z,982.74
2023-03-10T08:22:43.967Z,982.77
2023-03-10T08:23:43.951Z,982.75
2023-03-10T08:24:43.947Z,982.76
2023-03-10T08:25:43.941Z,982.76
2023-03-10T08:26:43.924Z,982.83
2023-03-10T08:27:43.913Z,982.84
2023-03-10T08:28:43.892Z,982.83
2023-03-10T08:29:43.883Z,982.78
2023-03-10T08:31:02.587Z,982.77
2023-03-10T08:31:43.887Z,982.73
2023-03-10T08:32:43.916Z,982.82
2023-03-10T08:33:43.842Z,982.76
2023-03-10T08:34:43.832Z,982.76
2023-03-10T08:35:43.894Z,982.77
2023-03-10T08:36:43.841Z,982.82
2023-03-10T08:37:44.121Z,982.81
2023-03-10T08:38:43.810Z,982.78
2023-03-10T08:39:43.805Z,982.83
2023-03-10T08:40:43.754Z,982.81
2023-03-10T08:41:43.758Z,982.81
2023-03-10T08:42:45.467Z,982.80
2023-03-10T08:43:43.763Z,982.76
2023-03-10T08:44:43.742Z,982.82
2023-03-10T08:45:43.710Z,982.83
2023-03-10T08:46:46.399Z,982.82
2023-03-10T08:47:43.684Z,982.88
2023-03-10T08:48:43.779Z,982.83
2023-03-10T08:49:46.311Z,982.79
2023-03-10T08:50:43.651Z,982.79
2023-03-10T08:51:43.837Z,982.83
2023-03-10T08:52:43.854Z,982.78
2023-03-10T08:53:43.628Z,982.76
2023-03-10T08:54:43.611Z,982.78
2023-03-10T08:55:43.604Z,982.86
2023-03-10T08:56:43.591Z,982.88
2023-03-10T08:57:43.583Z,982.84
2023-03-10T08:58:43.561Z,982.90
2023-03-10T08:59:43.559Z,982.93
2023-03-10T09:00:43.551Z,982.93
2023-03-10T09:01:43.617Z,982.90
2023-03-10T09:02:43.561Z,982.91
2023-03-10T09:03:43.512Z,982.91
2023-03-10T09:04:43.499Z,982.92
2023-03-10T09:05:43.498Z,982.94
2023-03-10T09:06:43.482Z,982.99
2023-03-10T09:07:43.526Z,982.93
2023-03-10T09:08:43.476Z,982.88
2023-03-10T09:09:43.447Z,982.98
2023-03-10T09:10:43.436Z,982.99
2023-03-10T09:11:43.427Z,982.91
2023-03-10T09:12:43.414Z,983.00
2023-03-10T09:13:43.400Z,983.08
2023-03-10T09:14:43.386Z,983.17
2023-03-10T09:15:43.381Z,983.02
2023-03-10T09:16:43.463Z,983.06
2023-03-10T09:17:43.363Z,983.03
2023-03-10T09:18:43.346Z,983.12
2023-03-10T09:19:43.337Z,983.08
2023-03-10T09:20:43.362Z,983.10
2023-03-10T09:21:43.315Z,983.07
2023-03-10T09:22:43.300Z,983.07
2023-03-10T09:23:43.296Z,983.23
2023-03-10T09:24:43.311Z,983.14
2023-03-10T09:25:43.275Z,983.08
2023-03-10T09:26:44.787Z,983.11
2023-03-10T09:27:46.175Z,983.13
2023-03-10T09:28:43.236Z,983.11
2023-03-10T09:29:43.807Z,983.12
2023-03-10T09:30:43.218Z,983.03
2023-03-10T09:31:43.327Z,983.09
2023-03-10T09:32:43.302Z,983.09
2023-03-10T09:33:43.182Z,983.12
2023-03-10T09:34:43.185Z,983.10
2023-03-10T09:35:52.572Z,983.02
2023-03-10T09:36:43.145Z,983.02
2023-03-10T09:37:43.133Z,983.10
2023-03-10T09:38:43.165Z,983.10
2023-03-10T09:39:43.113Z,983.02
2023-03-10T09:40:43.129Z,983.11
2023-03-10T09:41:43.095Z,983.10
2023-03-10T09:42:43.083Z,983.12
2023-03-10T09:43:43.078Z,983.05
2023-03-10T09:44:43.065Z,983.09
2023-03-10T09:45:43.095Z,983.10
2023-03-10T09:46:43.047Z,983.06
2023-03-10T09:47:43.040Z,983.06
2023-03-10T09:48:43.016Z,983.06
2023-03-10T09:49:43.006Z,983.15
2023-03-10T09:50:42.985Z,983.16
2023-03-10T09:51:42.977Z,983.13
2023-03-10T09:52:42.978Z,983.18
2023-03-10T09:53:42.960Z,983.18
2023-03-10T09:54:42.948Z,983.19
2023-03-10T09:55:48.025Z,983.24
2023-03-10T09:56:42.943Z,983.26
2023-03-10T09:57:42.923Z,983.15
2023-03-10T09:58:42.899Z,983.19
2023-03-10T09:59:42.896Z,983.25
2023-03-10T10:00:42.877Z,983.28
2023-03-10T10:01:42.977Z,983.32
2023-03-10T10:02:42.856Z,983.37
2023-03-10T10:03:52.508Z,983.36
2023-03-10T10:04:42.907Z,983.33
2023-03-10T10:05:42.856Z,983.42
2023-03-10T10:06:42.811Z,983.42
2023-03-10T10:07:42.838Z,983.41
2023-03-10T10:08:45.000Z,983.31
2023-03-10T10:09:42.785Z,983.32
2023-03-10T10:10:42.761Z,983.27
2023-03-10T10:11:42.757Z,983.40
2023-03-10T10:12:42.772Z,983.41
2023-03-10T10:13:44.211Z,983.45
2023-03-10T10:14:55.138Z,983.40
2023-03-10T10:15:42.715Z,983.37
2023-03-10T10:16:42.876Z,983.37
2023-03-10T10:17:51.083Z,983.36
2023-03-10T10:18:42.770Z,983.40
2023-03-10T10:19:42.667Z,983.40
2023-03-10T10:20:42.651Z,983.45
2023-03-10T10:21:43.209Z,983.51
2023-03-10T10:22:42.627Z,983.40
2023-03-10T10:23:42.622Z,983.42
2023-03-10T10:24:42.612Z,983.42
2023-03-10T10:25:42.675Z,983.45
2023-03-10T10:26:42.587Z,983.48
2023-03-10T10:27:42.576Z,983.47
2023-03-10T10:28:42.599Z,983.47
2023-03-10T10:29:42.569Z,983.47
2023-03-10T10:30:42.608Z,983.53
2023-03-10T10:31:42.533Z,983.51
2023-03-10T10:32:45.024Z,983.49
2023-03-10T10:33:43.686Z,983.50
2023-03-10T10:34:42.501Z,983.51
2023-03-10T10:35:42.519Z,983.58
2023-03-10T10:36:42.471Z,983.60
2023-03-10T10:37:42.478Z,983.59
2023-03-10T10:38:42.448Z,983.67
2023-03-10T10:39:42.447Z,983.63
2023-03-10T10:40:42.429Z,983.71
2023-03-10T10:41:42.425Z,983.71
2023-03-10T10:42:42.407Z,983.70
2023-03-10T10:43:42.398Z,983.68
2023-03-10T10:44:42.419Z,983.64
2023-03-10T10:45:42.456Z,983.66
2023-03-10T10:46:42.371Z,983.64
2023-03-10T10:47:42.361Z,983.64
2023-03-10T10:48:42.350Z,983.65
2023-03-10T10:49:42.337Z,983.58
2023-03-10T10:50:42.331Z,983.65
2023-03-10T10:51:42.317Z,983.69
2023-03-10T10:52:42.314Z,983.71
2023-03-10T10:53:42.297Z,983.66
2023-03-10T10:54:42.298Z,983.75
2023-03-10T10:55:42.264Z,983.73
2023-03-10T10:56:42.268Z,983.74
2023-03-10T10:57:42.250Z,983.71
2023-03-10T10:58:42.241Z,983.73
2023-03-10T10:59:42.253Z,983.77
2023-03-10T11:00:42.245Z,983.75
2023-03-10T11:01:42.290Z,983.76
2023-03-10T11:02:42.214Z,983.73
2023-03-10T11:03:42.183Z,983.73
2023-03-10T11:04:42.175Z,983.75
2023-03-10T11:05:42.162Z,983.71
2023-03-10T11:06:42.148Z,983.75
2023-03-10T11:07:42.137Z,983.72
2023-03-10T11:08:42.136Z,983.69
2023-03-10T11:09:42.118Z,983.74
2023-03-10T11:10:42.117Z,983.74
2023-03-10T11:11:42.107Z,983.75
2023-03-10T11:12:42.086Z,983.73
2023-03-10T11:13:42.072Z,983.82
2023-03-10T11:14:42.064Z,983.77
2023-03-10T11:15:42.077Z,983.74
2023-03-10T11:16:42.064Z,983.79
2023-03-10T11:17:42.029Z,983.79
2023-03-10T11:18:42.017Z,983.72
2023-03-10T11:19:42.008Z,983.74
2023-03-10T11:20:41.998Z,983.70
2023-03-10T11:21:41.979Z,983.67
2023-03-10T11:22:41.975Z,983.67
2023-03-10T11:23:41.966Z,983.62
2023-03-10T11:24:41.951Z,983.68
2023-03-10T11:25:41.946Z,983.68
2023-03-10T11:26:41.925Z,983.68
2023-03-10T11:27:41.920Z,983.71
2023-03-10T11:28:41.910Z,983.68
2023-03-10T11:29:41.942Z,983.61
2023-03-10T11:30:41.976Z,983.71
2023-03-10T11:31:41.876Z,983.65
2023-03-10T11:32:41.923Z,983.70
2023-03-10T11:33:41.856Z,983.76
2023-03-10T11:34:41.832Z,983.73
2023-03-10T11:35:41.835Z,983.76
2023-03-10T11:36:55.074Z,983.68
2023-03-10T11:37:41.807Z,983.75
2023-03-10T11:38:41.794Z,983.77
2023-03-10T11:39:41.801Z,983.78
2023-03-10T11:40:41.773Z,983.77
2023-03-10T11:41:41.759Z,983.75
2023-03-10T11:42:41.750Z,983.76
2023-03-10T11:43:41.741Z,983.77
2023-03-10T11:44:41.730Z,983.70
2023-03-10T11:45:41.714Z,983.76
2023-03-10T11:46:41.763Z,983.80
2023-03-10T11:47:42.116Z,983.79
2023-03-10T11:48:41.711Z,983.71
2023-03-10T11:49:41.671Z,983.73
2023-03-10T11:50:41.670Z,983.69
2023-03-10T11:51:41.650Z,983.75
2023-03-10T11:52:41.651Z,983.72
2023-03-10T11:53:41.629Z,983.74
2023-03-10T11:54:41.620Z,983.69
2023-03-10T11:55:41.606Z,983.67
2023-03-10T11:56:41.633Z,983.74
2023-03-10T11:57:41.573Z,983.66
2023-03-10T11:58:41.566Z,983.72
2023-03-10T11:59:41.558Z,983.61
2023-03-10T12:00:41.558Z,983.66
2023-03-10T12:01:41.538Z,983.67
2023-03-10T12:02:41.529Z,983.67
2023-03-10T12:03:41.556Z,983.74
2023-03-10T12:04:41.527Z,983.71
2023-03-10T12:05:41.539Z,983.70
2023-03-10T12:06:41.485Z,983.74
2023-03-10T12:07:41.466Z,983.70
2023-03-10T12:08:41.447Z,983.71
2023-03-10T12:09:41.441Z,983.70
2023-03-10T12:10:41.439Z,983.70
2023-03-10T12:11:41.420Z,983.75
2023-03-10T12:12:41.423Z,983.78
2023-03-10T12:13:41.393Z,983.82
2023-03-10T12:14:41.400Z,983.84
2023-03-10T12:15:41.409Z,983.77
2023-03-10T12:16:41.365Z,983.84
2023-03-10T12:17:41.355Z,983.85
2023-03-10T12:18:41.349Z,983.81
2023-03-10T12:19:41.323Z,983.80
2023-03-10T12:20:41.351Z,983.73
2023-03-10T12:21:41.319Z,983.68
2023-03-10T12:22:41.290Z,983.69
2023-03-10T12:23:41.287Z,983.63
2023-03-10T12:24:41.273Z,983.68
2023-03-10T12:25:41.259Z,983.68
2023-03-10T12:26:41.258Z,983.67
2023-03-10T12:27:41.243Z,983.67
2023-03-10T12:28:41.225Z,983.64